Time;durP1;ratioP1;P1;durP2;ratioP2;P2;SDS_P1;SDS_P2;PMS_P1;PMS_P2;Temp;Humidity;BMP_temperature;BMP_pressure;BME280_temperature;BME280_humidity;BME280_pressure;Samples;Min_cycle;Max_cycle;Signal;HPM_P1;HPM_P2
2021/09/19 00:00:07;;;;;;;;;;;;;;;;;;10381155;28;20381;-70
2021/09/19 00:05:09;;;;;;;;;;;;;;;;;;10362669;28;19925;-75
2021/09/19 00:10:11;;;;;;;;;;;;;;;;;;10379154;28;19972;-74
2021/09/19 00:15:14;;;;;;;;;;;;;;;;;;10375182;28;19926;-70
2021/09/19 00:20:18;;;;;;;;;;;;;;;;;;10379923;28;20510;-86
2021/09/19 00:25:20;;;;;;;;;;;;;;;;;;10379542;28;19925;-75
2021/09/19 00:30:23;;;;;;;;;;;;;;;;;;10379186;28;19929;-71
2021/09/19 00:35:26;;;;;;;;;;;;;;;;;;10378445;28;19933;-72
2021/09/19 00:40:29;;;;;;;;;;;;;;;;;;10378576;28;19996;-78
2021/09/19 00:45:32;;;;;;;;;;;;;;;;;;10379012;28;19932;-83
2021/09/19 00:50:35;;;;;;;;;;;;;;;;;;10377492;28;19933;-75
2021/09/19 00:55:37;;;;;;;;;;;;;;;;;;10361221;28;19932;-74
2021/09/19 01:00:44;;;;;;;;;;;;;;;;;;10378693;28;20400;-77
2021/09/19 01:05:55;;;;;;;;;;;;;;;;;;10379113;28;19936;-75
2021/09/19 01:10:57;;;;;;;;;;;;;;;;;;10377871;28;19930;-78
2021/09/19 01:16:02;;;;;;;;;;;;;;;;;;10377164;28;19956;-78
2021/09/19 01:21:05;;;;;;;;;;;;;;;;;;10377998;28;20555;-72
2021/09/19 01:26:08;;;;;;;;;;;;;;;;;;10378532;28;19926;-73
2021/09/19 01:31:10;;;;;;;;;;;;;;;;;;10376564;28;19926;-78
2021/09/19 01:36:15;;;;;;;;;;;;;;;;;;10376731;28;20400;-72
2021/09/19 01:41:18;;;;;;;;;;;;;;;;;;10376833;28;19933;-76
2021/09/19 01:46:24;;;;;;;;;;;;;;;;;;10376014;28;19926;-75
2021/09/19 01:51:27;;;;;;;;;;;;;;;;;;10376563;28;20009;-73
2021/09/19 01:56:29;;;;;;;;;;;;;;;;;;10375969;28;19925;-74
2021/09/19 02:01:33;;;;;;;;;;;;;;;;;;10374973;28;19926;-72
2021/09/19 02:06:36;;;;;;;;;;;;;;;;;;10375700;28;19926;-84
2021/09/19 02:11:39;;;;;;;;;;;;;;;;;;10374075;28;19971;-74
2021/09/19 02:16:41;;;;;;;;;;;;;;;;;;10374088;28;19979;-81
2021/09/19 02:21:43;;;;;;;;;;;;;;;;;;10376012;28;19925;-83
2021/09/19 02:26:49;;;;;;;;;;;;;;;;;;10375215;28;19930;-82
2021/09/19 02:31:52;;;;;;;;;;;;;;;;;;10373939;28;19929;-75
2021/09/19 02:36:54;;;;;;;;;;;;;;;;;;10374651;28;20037;-81
2021/09/19 02:41:57;;;;;;;;;;;;;;;;;;10373190;28;19951;-72
2021/09/19 02:47:00;;;;;;;;;;;;;;;;;;10374315;28;19925;-84
2021/09/19 02:52:03;;;;;;;;;;;;;;;;;;10373393;28;19976;-86
2021/09/19 02:57:05;;;;;;;;;;;;;;;;;;10374380;28;20297;-86
2021/09/19 03:02:08;;;;;;;;;;;;;;;;;;10372738;28;19933;-72
2021/09/19 03:07:11;;;;;;;;;;;;;;;;;;10374377;28;19945;-79
2021/09/19 03:12:13;;;;;;;;;;;;;;;;;;10373007;28;19925;-79
2021/09/19 03:17:15;;;;;;;;;;;;;;;;;;10372783;28;19929;-74
2021/09/19 03:22:18;;;;;;;;;;;;;;;;;;10373877;28;20435;-72
2021/09/19 03:27:21;;;;;;;;;;;;;;;;;;10371950;28;19925;-85
2021/09/19 03:32:23;;;;;;;;;;;;;;;;;;10373035;28;19925;-72
2021/09/19 03:37:26;;;;;;;;;;;;;;;;;;10373051;28;20293;-78
2021/09/19 03:42:29;;;;;;;;;;;;;;;;;;10373018;28;19933;-86
2021/09/19 03:47:33;;;;;;;;;;;;;;;;;;10372200;28;19925;-72
2021/09/19 03:52:36;;;;;;;;;;;;;;;;;;10371763;28;19926;-86
2021/09/19 03:57:39;;;;;;;;;;;;;;;;;;10373350;28;19932;-72
2021/09/19 04:02:44;;;;;;;;;;;;;;;;;;10373358;28;20447;-74
2021/09/19 04:07:47;;;;;;;;;;;;;;;;;;10370909;28;20463;-72
2021/09/19 04:12:50;;;;;;;;;;;;;;;;;;10372067;28;19925;-85
2021/09/19 04:17:53;;;;;;;;;;;;;;;;;;10371324;28;19925;-79
2021/09/19 04:22:55;;;;;;;;;;;;;;;;;;10357512;28;20246;-78
2021/09/19 04:27:58;;;;;;;;;;;;;;;;;;10378710;28;20352;-86
2021/09/19 04:33:00;;;;;;;;;;;;;;;;;;10379026;28;19925;-74
2021/09/19 04:38:05;;;;;;;;;;;;;;;;;;10378041;28;19926;-74
2021/09/19 04:43:12;;;;;;;;;;;;;;;;;;10378887;28;19934;-74
2021/09/19 04:48:19;;;;;;;;;;;;;;;;;;10379246;28;19932;-85
2021/09/19 04:53:21;;;;;;;;;;;;;;;;;;10377836;28;19925;-78
2021/09/19 04:58:24;;;;;;;;;;;;;;;;;;10377746;28;19932;-73
2021/09/19 05:03:27;;;;;;;;;;;;;;;;;;10378806;28;20377;-75
2021/09/19 05:08:30;;;;;;;;;;;;;;;;;;10377599;28;19926;-79
2021/09/19 05:13:32;;;;;;;;;;;;;;;;;;10377005;28;19948;-83
2021/09/19 05:18:35;;;;;;;;;;;;;;;;;;10377957;28;19930;-74
2021/09/19 05:23:37;;;;;;;;;;;;;;;;;;10377319;28;19937;-81
2021/09/19 05:28:39;;;;;;;;;;;;;;;;;;10375876;28;19925;-74
2021/09/19 05:33:42;;;;;;;;;;;;;;;;;;10376098;28;19944;-69
2021/09/19 05:38:45;;;;;;;;;;;;;;;;;;10376311;28;19984;-74
2021/09/19 05:43:51;;;;;;;;;;;;;;;;;;10377067;28;19992;-80
2021/09/19 05:48:54;;;;;;;;;;;;;;;;;;10375052;28;19929;-77
2021/09/19 05:53:56;;;;;;;;;;;;;;;;;;10374599;28;19929;-73
2021/09/19 05:58:59;;;;;;;;;;;;;;;;;;10375624;28;19929;-77
2021/09/19 06:04:01;;;;;;;;;;;;;;;;;;10374530;28;19926;-76
2021/09/19 06:09:05;;;;;;;;;;;;;;;;;;10375101;28;19967;-73
2021/09/19 06:14:10;;;;;;;;;;;;;;;;;;10375534;28;19972;-74
2021/09/19 06:19:13;;;;;;;;;;;;;;;;;;10375016;28;19925;-74
2021/09/19 06:24:16;;;;;;;;;;;;;;;;;;10374128;28;19925;-75
2021/09/19 06:29:27;;;;;;;;;;;;;;;;;;10334800;28;19925;-77
2021/09/19 06:34:30;;;;;;;;;;;;;;;;;;10350233;28;19925;-75
2021/09/19 06:39:36;;;;;;;;;;;;;;;;;;10353337;28;20468;-76
2021/09/19 06:44:39;;;;;;;;;;;;;;;;;;10330055;28;19926;-76
2021/09/19 06:49:50;;;;;;;;;;;;;;;;;;10330193;28;19929;-74
2021/09/19 06:54:53;;;;;;;;;;;;;;;;;;10331037;28;19984;-76
2021/09/19 07:00:19;;;;;;;;;;;;;;;;;;10367346;28;19928;-77
2021/09/19 07:05:24;;;;;;;;;;;;;;;;;;10360798;28;19933;-75
2021/09/19 07:10:28;;;;;;;;;;;;;;;;;;10366913;28;19957;-76
2021/09/19 07:15:34;;;;;;;;;;;;;;;;;;10372420;28;19925;-77
2021/09/19 07:20:37;;;;;;;;;;;;;;;;;;10372694;28;20308;-74
2021/09/19 07:25:42;;;;;;;;;;;;;;;;;;10372394;28;19926;-74
2021/09/19 07:30:48;;;;;;;;;;;;;;;;;;10373186;28;19925;-76
2021/09/19 07:35:50;;;;;;;;;;;;;;;;;;10376135;28;19932;-75
2021/09/19 07:40:55;;;;;;;;;;;;;;;;;;10373732;28;19925;-77
2021/09/19 07:45:58;;;;;;;;;;;;;;;;;;10357098;28;19930;-81
2021/09/19 07:51:02;;;;;;;;;;;;;;;;;;10358613;28;20040;-78
2021/09/19 07:56:05;;;;;;;;;;;;;;;;;;10378413;28;19925;-79
2021/09/19 08:01:09;;;;;;;;;;;;;;;;;;10379354;28;19933;-77
2021/09/19 08:06:14;;;;;;;;;;;;;;;;;;10378874;28;19930;-76
2021/09/19 08:11:17;;;;;;;;;;;;;;;;;;10381743;28;19929;-76
2021/09/19 08:16:20;;;;;;;;;;;;;;;;;;10378907;28;19948;-82
2021/09/19 08:21:23;;;;;;;;;;;;;;;;;;10379828;28;19929;-80
2021/09/19 08:26:28;;;;;;;;;;;;;;;;;;10380017;28;19929;-84
2021/09/19 08:31:33;;;;;;;;;;;;;;;;;;10378061;28;19961;-77
2021/09/19 08:36:36;;;;;;;;;;;;;;;;;;10382906;23;19995;-79
2021/09/19 08:41:39;;;;;;;;;;;;;;;;;;10360224;28;19929;-87
2021/09/19 08:46:41;;;;;;;;;;;;;;;;;;10305395;28;19932;-82
2021/09/19 08:51:44;;;;;;;;;;;;;;;;;;10320851;28;19926;-87
2021/09/19 08:56:49;;;;;;;;;;;;;;;;;;10321143;28;19956;-80
2021/09/19 09:01:53;;;;;;;;;;;;;;;;;;10321912;28;20017;-85
2021/09/19 09:06:56;;;;;;;;;;;;;;;;;;10301680;28;19926;-82
2021/09/19 09:11:58;;;;;;;;;;;;;;;;;;10334644;28;19936;-80
2021/09/19 09:17:03;;;;;;;;;;;;;;;;;;10337149;28;19933;-86
2021/09/19 09:22:09;;;;;;;;;;;;;;;;;;10319154;28;20401;-81
2021/09/19 09:27:12;;;;;;;;;;;;;;;;;;10351735;28;19933;-83
2021/09/19 09:32:14;;;;;;;;;;;;;;;;;;10352337;28;19926;-83
2021/09/19 09:37:17;;;;;;;;;;;;;;;;;;10335437;28;19932;-83
2021/09/19 09:42:20;;;;;;;;;;;;;;;;;;10336116;28;20354;-86
2021/09/19 09:47:28;;;;;;;;;;;;;;;;;;10336213;28;20024;-82
2021/09/19 09:52:31;;;;;;;;;;;;;;;;;;10349751;28;19925;-82
2021/09/19 09:57:34;;;;;;;;;;;;;;;;;;10351465;28;19934;-83
2021/09/19 10:02:37;;;;;;;;;;;;;;;;;;10317917;28;20004;-82
2021/09/19 10:07:42;;;;;;;;;;;;;;;;;;10335047;28;19926;-80
2021/09/19 10:12:53;;;;;;;;;;;;;;;;;;10317790;28;19932;-86
2021/09/19 10:17:55;;;;;;;;;;;;;;;;;;10318031;28;19970;-82
2021/09/19 10:22:59;;;;;;;;;;;;;;;;;;10332254;28;19945;-84
2021/09/19 10:28:02;;;;;;;;;;;;;;;;;;10349405;28;19925;-86
2021/09/19 10:33:05;;;;;;;;;;;;;;;;;;10316880;28;19932;-86
2021/09/19 10:38:07;;;;;;;;;;;;;;;;;;10332638;28;19926;-80
2021/09/19 10:43:12;;;;;;;;;;;;;;;;;;10332657;28;19926;-87
2021/09/19 10:48:15;;;;;;;;;;;;;;;;;;10349304;28;19925;-83
2021/09/19 10:53:18;;;;;;;;;;;;;;;;;;10332400;28;19972;-82
2021/09/19 10:58:21;;;;;;;;;;;;;;;;;;10331845;28;19926;-82
2021/09/19 11:03:23;;;;;;;;;;;;;;;;;;10348700;28;19976;-80
2021/09/19 11:08:27;;;;;;;;;;;;;;;;;;10347844;28;19926;-83
2021/09/19 11:13:29;;;;;;;;;;;;;;;;;;10348331;28;19930;-81
2021/09/19 11:18:32;;;;;;;;;;;;;;;;;;10347841;28;20016;-84
2021/09/19 11:23:35;;;;;;;;;;;;;;;;;;10330398;28;20337;-83
2021/09/19 11:28:39;;;;;;;;;;;;;;;;;;10314827;28;20016;-78
2021/09/19 11:33:41;;;;;;;;;;;;;;;;;;10334191;28;19929;-77
2021/09/19 11:38:44;;;;;;;;;;;;;;;;;;10339115;28;19933;-78
2021/09/19 11:43:48;;;;;;;;;;;;;;;;;;10340390;28;19930;-76
2021/09/19 11:48:52;;;;;;;;;;;;;;;;;;10343121;28;19926;-77
2021/09/19 11:53:55;;;;;;;;;;;;;;;;;;10340012;28;19925;-74
2021/09/19 11:59:01;;;;;;;;;;;;;;;;;;10339447;28;19926;-77
2021/09/19 12:04:04;;;;;;;;;;;;;;;;;;10354178;28;19926;-77
2021/09/19 12:09:07;;;;;;;;;;;;;;;;;;10321747;28;19926;-79
2021/09/19 12:14:13;;;;;;;;;;;;;;;;;;10338951;28;19925;-72
2021/09/19 12:19:16;;;;;;;;;;;;;;;;;;10353854;28;20317;-79
2021/09/19 12:24:18;;;;;;;;;;;;;;;;;;10338515;28;19991;-80
2021/09/19 12:29:22;;;;;;;;;;;;;;;;;;10352478;28;20399;-80
2021/09/19 12:34:26;;;;;;;;;;;;;;;;;;10353275;28;19925;-73
2021/09/19 12:39:31;;;;;;;;;;;;;;;;;;10338299;28;19936;-73
2021/09/19 12:44:36;;;;;;;;;;;;;;;;;;10319225;28;20451;-78
2021/09/19 12:49:39;;;;;;;;;;;;;;;;;;10352416;28;19954;-78
2021/09/19 12:54:42;;;;;;;;;;;;;;;;;;10352292;28;20000;-72
2021/09/19 12:59:45;;;;;;;;;;;;;;;;;;10336286;28;20393;-73
2021/09/19 13:04:47;;;;;;;;;;;;;;;;;;10336689;28;19960;-77
2021/09/19 13:09:50;;;;;;;;;;;;;;;;;;10351528;28;19992;-72
2021/09/19 13:14:54;;;;;;;;;;;;;;;;;;10351050;28;19976;-78
2021/09/19 13:19:57;;;;;;;;;;;;;;;;;;10351023;28;19930;-76
2021/09/19 13:25:03;;;;;;;;;;;;;;;;;;10317436;28;19933;-77
2021/09/19 13:30:06;;;;;;;;;;;;;;;;;;10351035;28;19932;-76
2021/09/19 13:35:09;;;;;;;;;;;;;;;;;;10335617;28;19934;-72
2021/09/19 13:40:19;;;;;;;;;;;;;;;;;;10334950;28;19926;-72
2021/09/19 13:45:22;;;;;;;;;;;;;;;;;;10335090;28;19930;-72
2021/09/19 13:50:25;;;;;;;;;;;;;;;;;;10349590;28;19926;-72
2021/09/19 13:55:28;;;;;;;;;;;;;;;;;;10348732;28;19925;-74
2021/09/19 14:00:32;;;;;;;;;;;;;;;;;;10317059;28;20289;-72
2021/09/19 14:05:35;;;;;;;;;;;;;;;;;;10348508;28;19946;-77
2021/09/19 14:10:41;;;;;;;;;;;;;;;;;;10316364;28;19933;-74
2021/09/19 14:15:44;;;;;;;;;;;;;;;;;;10333750;28;19932;-77
2021/09/19 14:20:47;;;;;;;;;;;;;;;;;;10333781;28;19926;-72
2021/09/19 14:25:51;;;;;;;;;;;;;;;;;;10348632;28;20025;-77
2021/09/19 14:30:54;;;;;;;;;;;;;;;;;;10348080;28;19933;-76
2021/09/19 14:35:58;;;;;;;;;;;;;;;;;;10348492;28;19933;-76
2021/09/19 14:41:02;;;;;;;;;;;;;;;;;;10333050;28;19929;-72
2021/09/19 14:46:05;;;;;;;;;;;;;;;;;;10333202;28;19925;-77
2021/09/19 14:51:10;;;;;;;;;;;;;;;;;;10333335;28;20195;-77
2021/09/19 14:56:13;;;;;;;;;;;;;;;;;;10316074;28;20432;-74
2021/09/19 15:01:15;;;;;;;;;;;;;;;;;;10348006;28;19933;-72
2021/09/19 15:06:20;;;;;;;;;;;;;;;;;;10332637;28;19926;-72
2021/09/19 15:11:22;;;;;;;;;;;;;;;;;;10332783;28;20427;-77
2021/09/19 15:16:26;;;;;;;;;;;;;;;;;;10347665;28;19932;-78
2021/09/19 15:21:29;;;;;;;;;;;;;;;;;;10347258;28;20381;-72
2021/09/19 15:26:32;;;;;;;;;;;;;;;;;;10332293;28;19926;-78
2021/09/19 15:31:35;;;;;;;;;;;;;;;;;;10314741;28;20421;-72
2021/09/19 15:36:40;;;;;;;;;;;;;;;;;;10314055;28;19930;-79
2021/09/19 15:41:43;;;;;;;;;;;;;;;;;;10330532;28;20278;-72
2021/09/19 15:46:46;;;;;;;;;;;;;;;;;;10314032;28;19933;-79
2021/09/19 15:51:50;;;;;;;;;;;;;;;;;;10346510;28;19977;-74
2021/09/19 15:56:54;;;;;;;;;;;;;;;;;;10346151;28;20391;-77
2021/09/19 16:02:00;;;;;;;;;;;;;;;;;;10331445;28;19926;-78
2021/09/19 16:07:04;;;;;;;;;;;;;;;;;;10345892;28;19933;-78
2021/09/19 16:12:09;;;;;;;;;;;;;;;;;;10346168;28;20066;-78
2021/09/19 16:17:13;;;;;;;;;;;;;;;;;;10331479;28;20381;-75
2021/09/19 16:22:17;;;;;;;;;;;;;;;;;;10337851;28;19997;-79
2021/09/19 16:27:20;;;;;;;;;;;;;;;;;;10337389;28;20021;-75
2021/09/19 16:32:28;;;;;;;;;;;;;;;;;;10351508;28;19926;-79
2021/09/19 16:37:32;;;;;;;;;;;;;;;;;;10336385;28;19957;-80
2021/09/19 16:42:45;;;;;;;;;;;;;;;;;;10351821;28;19933;-79
2021/09/19 16:47:48;;;;;;;;;;;;;;;;;;10337967;28;20371;-74
2021/09/19 16:52:54;;;;;;;;;;;;;;;;;;10337473;28;19925;-75
2021/09/19 16:58:02;;;;;;;;;;;;;;;;;;10337264;28;19925;-75
2021/09/19 17:03:05;;;;;;;;;;;;;;;;;;10337283;28;20481;-72
2021/09/19 17:08:13;;;;;;;;;;;;;;;;;;10336934;28;19972;-82
2021/09/19 17:13:35;;;;;;;;;;;;;;;;;;10319413;28;19996;-76
2021/09/19 17:18:45;;;;;;;;;;;;;;;;;;10336744;28;19957;-80
2021/09/19 17:23:51;;;;;;;;;;;;;;;;;;10351296;28;19929;-81
2021/09/19 17:29:01;;;;;;;;;;;;;;;;;;10317044;28;19932;-81
2021/09/19 17:34:08;;;;;;;;;;;;;;;;;;10335524;28;19957;-75
2021/09/19 17:39:13;;;;;;;;;;;;;;;;;;10318237;28;19926;-81
2021/09/19 17:44:24;;;;;;;;;;;;;;;;;;10318553;28;19930;-74
2021/09/19 17:49:27;;;;;;;;;;;;;;;;;;10335613;28;19969;-77
2021/09/19 17:54:35;;;;;;;;;;;;;;;;;;10335637;28;19933;-82
2021/09/19 17:59:40;;;;;;;;;;;;;;;;;;10317899;28;19930;-81
2021/09/19 18:04:48;;;;;;;;;;;;;;;;;;10170867;29;19933;-78
2021/09/19 18:10:01;;;;;;;;;;;;;;;;;;10169724;29;20439;-73
2021/09/19 18:15:04;;;;;;;;;;;;;;;;;;10166267;29;19927;-80
2021/09/19 18:20:12;;;;;;;;;;;;;;;;;;10171036;29;19970;-80
2021/09/19 18:25:19;;;;;;;;;;;;;;;;;;10170815;29;19933;-81
2021/09/19 18:30:27;;;;;;;;;;;;;;;;;;10170928;29;19927;-74
2021/09/19 18:35:29;;;;;;;;;;;;;;;;;;10283445;28;19929;-74
2021/09/19 18:40:37;;;;;;;;;;;;;;;;;;10334460;28;19926;-79
2021/09/19 18:45:44;;;;;;;;;;;;;;;;;;10349167;28;19926;-80
2021/09/19 18:50:49;;;;;;;;;;;;;;;;;;10349505;28;20369;-79
2021/09/19 18:55:52;;;;;;;;;;;;;;;;;;10312228;28;19926;-81
2021/09/19 19:00:57;;;;;;;;;;;;;;;;;;10315485;28;19941;-73
2021/09/19 19:06:05;;;;;;;;;;;;;;;;;;10331911;28;20029;-81
2021/09/19 19:11:22;;;;;;;;;;;;;;;;;;10345426;28;20008;-67
2021/09/19 19:16:25;;;;;;;;;;;;;;;;;;10347206;28;19926;-75
2021/09/19 19:21:32;;;;;;;;;;;;;;;;;;10328356;28;19933;-76
2021/09/19 19:26:41;;;;;;;;;;;;;;;;;;10310254;28;19937;-78
2021/09/19 19:31:47;;;;;;;;;;;;;;;;;;10341950;28;19930;-75
2021/09/19 19:36:56;;;;;;;;;;;;;;;;;;10327442;28;19930;-72
2021/09/19 19:41:59;;;;;;;;;;;;;;;;;;10310214;28;19929;-72
2021/09/19 19:47:02;;;;;;;;;;;;;;;;;;10325931;28;20043;-74
2021/09/19 19:52:05;;;;;;;;;;;;;;;;;;10326420;28;19936;-73
2021/09/19 19:57:12;;;;;;;;;;;;;;;;;;10333531;28;19972;-75
2021/09/19 20:02:33;;;;;;;;;;;;;;;;;;10335015;28;20408;-75
2021/09/19 20:07:37;;;;;;;;;;;;;;;;;;10331750;28;19925;-75
2021/09/19 20:12:40;;;;;;;;;;;;;;;;;;10316601;28;20440;-74
2021/09/19 20:17:48;;;;;;;;;;;;;;;;;;10334530;28;19950;-75
2021/09/19 20:23:00;;;;;;;;;;;;;;;;;;10316362;28;19930;-76
2021/09/19 20:28:09;;;;;;;;;;;;;;;;;;10333763;28;20022;-76
2021/09/19 20:33:11;;;;;;;;;;;;;;;;;;10347676;28;20037;-73
2021/09/19 20:38:15;;;;;;;;;;;;;;;;;;10361440;23;20462;-75
2021/09/19 20:43:17;;;;;;;;;;;;;;;;;;10357862;28;19980;-73
2021/09/19 20:48:21;;;;;;;;;;;;;;;;;;10332275;28;19934;-75
2021/09/19 20:53:26;;;;;;;;;;;;;;;;;;10331938;28;19930;-76
2021/09/19 20:58:29;;;;;;;;;;;;;;;;;;10331501;28;19926;-74
2021/09/19 21:03:36;;;;;;;;;;;;;;;;;;10331166;28;19934;-72
2021/09/19 21:08:41;;;;;;;;;;;;;;;;;;10328188;28;19930;-75
2021/09/19 21:13:48;;;;;;;;;;;;;;;;;;10332638;28;19961;-73
2021/09/19 21:18:53;;;;;;;;;;;;;;;;;;10333757;28;20044;-76
2021/09/19 21:23:56;;;;;;;;;;;;;;;;;;10371145;28;20452;-77
2021/09/19 21:29:00;;;;;;;;;;;;;;;;;;10372141;28;20376;-75
2021/09/19 21:34:04;;;;;;;;;;;;;;;;;;10370225;28;19933;-78
2021/09/19 21:39:06;;;;;;;;;;;;;;;;;;10363289;28;20404;-74
2021/09/19 21:44:11;;;;;;;;;;;;;;;;;;10349848;28;19926;-74
2021/09/19 21:49:19;;;;;;;;;;;;;;;;;;10355752;28;19965;-74
2021/09/19 21:54:22;;;;;;;;;;;;;;;;;;10354814;28;19937;-74
2021/09/19 21:59:25;;;;;;;;;;;;;;;;;;10353972;28;19991;-77
2021/09/19 22:04:28;;;;;;;;;;;;;;;;;;10356213;28;19925;-76
2021/09/19 22:09:30;;;;;;;;;;;;;;;;;;10354225;28;19925;-74
2021/09/19 22:14:34;;;;;;;;;;;;;;;;;;10354535;28;19925;-74
2021/09/19 22:19:39;;;;;;;;;;;;;;;;;;10350966;28;19925;-74
2021/09/19 22:24:42;;;;;;;;;;;;;;;;;;10335382;28;20373;-75
2021/09/19 22:29:45;;;;;;;;;;;;;;;;;;10335064;28;19926;-75
2021/09/19 22:34:47;;;;;;;;;;;;;;;;;;10335808;28;19926;-75
2021/09/19 22:39:50;;;;;;;;;;;;;;;;;;10333854;28;19933;-76
2021/09/19 22:44:53;;;;;;;;;;;;;;;;;;10341151;28;19929;-75
2021/09/19 22:49:55;;;;;;;;;;;;;;;;;;10352679;28;20365;-75
2021/09/19 22:54:58;;;;;;;;;;;;;;;;;;10353068;28;19929;-75
2021/09/19 23:00:04;;;;;;;;;;;;;;;;;;10349503;28;19926;-74
2021/09/19 23:05:07;;;;;;;;;;;;;;;;;;10353693;28;19925;-74
2021/09/19 23:10:13;;;;;;;;;;;;;;;;;;10353885;28;19937;-74
2021/09/19 23:15:16;;;;;;;;;;;;;;;;;;10353268;28;19926;-76
2021/09/19 23:20:20;;;;;;;;;;;;;;;;;;10369086;28;19933;-75
2021/09/19 23:25:22;;;;;;;;;;;;;;;;;;10356610;28;19929;-74
2021/09/19 23:30:25;;;;;;;;;;;;;;;;;;10372639;28;20313;-74
2021/09/19 23:35:29;;;;;;;;;;;;;;;;;;10373929;28;20377;-74
2021/09/19 23:40:32;;;;;;;;;;;;;;;;;;10339602;28;19933;-74
2021/09/19 23:45:36;;;;;;;;;;;;;;;;;;10331975;28;19932;-74
2021/09/19 23:50:38;;;;;;;;;;;;;;;;;;10331748;28;19926;-74
2021/09/19 23:55:41;;;;;;;;;;;;;;;;;;10332897;28;19926;-74
